Time;durP1;ratioP1;P1;durP2;ratioP2;P2;SDS_P1;SDS_P2;PMS_P1;PMS_P2;Temp;Humidity;BMP_temperature;BMP_pressure;BME280_temperature;BME280_humidity;BME280_pressure;Samples;Min_cycle;Max_cycle;Signal;HPM_P1;HPM_P2
2022/03/02 00:02:04;;;;;;;46.48;21.68;;;;;;;1.40;100.00;-11891.80;1687882;85;21087;-57
2022/03/02 00:04:32;;;;;;;43.55;20.52;;;;;;;1.40;100.00;-12055.39;1688260;84;21144;-55
2022/03/02 00:06:59;;;;;;;44.60;20.65;;;;;;;1.41;100.00;-12055.53;1687474;85;21074;-58
2022/03/02 00:09:26;;;;;;;45.25;20.52;;;;;;;1.42;100.00;-12219.11;1689688;84;21102;-58
2022/03/02 00:11:53;;;;;;;40.30;21.27;;;;;;;1.42;100.00;-12382.70;1691123;83;21080;-57
2022/03/02 00:14:20;;;;;;;37.67;19.00;;;;;;;1.42;100.00;-12382.70;1688313;83;21596;-57
2022/03/02 00:16:47;;;;;;;46.10;21.10;;;;;;;1.42;100.00;-12382.70;1687613;83;21130;-56
2022/03/02 00:19:13;;;;;;;43.60;21.37;;;;;;;1.43;100.00;-12546.34;1687203;84;21627;-55
2022/03/02 00:21:40;;;;;;;44.67;21.40;;;;;;;1.43;100.00;-12709.84;1687816;84;21044;-56
2022/03/02 00:24:08;;;;;;;47.95;21.00;;;;;;;1.44;100.00;-12873.41;1687360;84;21498;-55
2022/03/02 00:26:35;;;;;;;39.67;19.12;;;;;;;1.45;100.00;-12873.48;1687609;85;21112;-55
2022/03/02 00:29:02;;;;;;;41.18;19.77;;;;;;;1.45;100.00;-13037.04;1686059;85;21438;-56
2022/03/02 00:31:29;;;;;;;50.03;22.22;;;;;;;1.45;100.00;-13036.97;1717263;83;21037;-55
2022/03/02 00:33:56;;;;;;;43.38;19.70;;;;;;;1.46;100.00;-13200.60;1718298;81;21039;-57
2022/03/02 00:36:23;;;;;;;48.78;21.77;;;;;;;1.46;100.00;-13200.60;1724626;83;21589;-55
2022/03/02 00:38:50;;;;;;;40.85;19.55;;;;;;;1.45;100.00;-13200.52;1724271;81;21103;-56
2022/03/02 00:41:17;;;;;;;47.95;20.92;;;;;;;1.46;100.00;-13364.07;1723383;81;21144;-55
2022/03/02 00:43:47;;;;;;;45.95;20.45;;;;;;;1.44;100.00;-13363.84;1691924;83;21130;-56
2022/03/02 00:46:15;;;;;;;52.10;22.58;;;;;;;1.44;100.00;-13363.84;1690111;83;21276;-56
2022/03/02 00:48:42;;;;;;;41.05;20.80;;;;;;;1.45;100.00;-13363.91;1690759;83;21035;-55
2022/03/02 00:51:09;;;;;;;43.28;20.55;;;;;;;1.46;100.00;-13527.54;1690326;83;21049;-55
2022/03/02 00:53:37;;;;;;;42.73;21.02;;;;;;;1.45;100.00;-13527.37;1690833;84;21217;-56
2022/03/02 00:56:04;;;;;;;47.85;21.00;;;;;;;1.44;100.00;-13527.30;1690302;83;21085;-56
2022/03/02 00:58:31;;;;;;;46.88;21.80;;;;;;;1.42;100.00;-13527.06;1690554;84;21527;-64
2022/03/02 01:00:58;;;;;;;35.55;15.95;;;;;;;1.42;100.00;-13690.51;1689990;83;21089;-58
2022/03/02 01:03:25;;;;;;;47.93;20.95;;;;;;;1.41;100.00;-13690.35;1690357;84;21636;-57
2022/03/02 01:05:52;;;;;;;46.53;21.87;;;;;;;1.41;100.00;-13690.27;1690204;84;21533;-64
2022/03/02 01:08:18;;;;;;;43.25;21.37;;;;;;;1.42;100.00;-13690.51;1690472;83;21602;-64
2022/03/02 01:10:45;;;;;;;44.27;19.82;;;;;;;1.42;100.00;-13690.51;1696978;83;21083;-58
2022/03/02 01:13:12;;;;;;;44.63;20.95;;;;;;;1.42;100.00;-13690.51;1719193;83;21095;-57
2022/03/02 01:15:39;;;;;;;46.08;19.12;;;;;;;1.44;100.00;-13527.30;1719355;83;21056;-57
2022/03/02 01:18:05;;;;;;;41.85;18.55;;;;;;;1.45;100.00;-13527.37;1719031;82;21130;-58
2022/03/02 01:20:32;;;;;;;42.73;20.37;;;;;;;1.43;100.00;-13527.14;1719382;83;21072;-55
2022/03/02 01:22:59;;;;;;;48.60;21.73;;;;;;;1.43;100.00;-13527.22;1719051;82;21060;-57
2022/03/02 01:25:27;;;;;;;46.33;20.20;;;;;;;1.43;100.00;-13527.22;1719425;83;21095;-58
2022/03/02 01:27:54;;;;;;;42.95;19.27;;;;;;;1.43;100.00;-13527.22;1719366;83;21596;-57
2022/03/02 01:30:21;;;;;;;47.83;20.65;;;;;;;1.43;100.00;-13527.22;1718418;83;21118;-58
2022/03/02 01:32:48;;;;;;;49.05;21.12;;;;;;;1.43;100.00;-13527.14;1718173;83;21106;-58
2022/03/02 01:35:15;;;;;;;50.03;21.35;;;;;;;1.42;100.00;-13526.98;1720512;82;21102;-58
2022/03/02 01:37:42;;;;;;;39.55;16.50;;;;;;;1.40;100.00;-13526.75;1721878;83;21550;-57
2022/03/02 01:40:09;;;;;;;50.00;21.37;;;;;;;1.40;100.00;-13526.67;1721311;83;21353;-64
2022/03/02 01:42:38;;;;;;;44.42;20.55;;;;;;;1.39;100.00;-13526.59;1705971;83;21840;-64
2022/03/02 01:45:07;;;;;;;44.15;19.57;;;;;;;1.39;100.00;-13526.59;1693629;83;21088;-62
2022/03/02 01:47:35;;;;;;;46.15;19.55;;;;;;;1.37;100.00;-13689.71;1693803;83;21089;-63
2022/03/02 01:50:03;;;;;;;44.80;19.60;;;;;;;1.37;100.00;-13689.71;1693290;83;22077;-63
2022/03/02 01:52:30;;;;;;;43.30;18.77;;;;;;;1.36;100.00;-13689.55;1693993;84;21589;-63
2022/03/02 01:54:57;;;;;;;47.08;20.30;;;;;;;1.38;100.00;-13853.30;1693277;84;21973;-62
2022/03/02 01:57:24;;;;;;;43.33;19.37;;;;;;;1.39;100.00;-13853.46;1694256;84;21435;-63
2022/03/02 01:59:51;;;;;;;46.00;20.02;;;;;;;1.38;100.00;-13853.30;1693581;83;21208;-64
2022/03/02 02:02:17;;;;;;;49.10;19.92;;;;;;;1.39;100.00;-13853.46;1693833;84;21051;-63
2022/03/02 02:04:44;;;;;;;46.05;19.65;;;;;;;1.40;100.00;-13853.54;1693682;84;21462;-57
2022/03/02 02:07:11;;;;;;;45.63;21.12;;;;;;;1.41;100.00;-13853.79;1693640;84;21541;-57
2022/03/02 02:09:38;;;;;;;45.45;20.30;;;;;;;1.42;100.00;-13853.87;1699336;83;21080;-56
2022/03/02 02:12:05;;;;;;;44.40;18.57;;;;;;;1.40;100.00;-13853.62;1697153;83;21100;-57
2022/03/02 02:14:32;;;;;;;43.58;19.35;;;;;;;1.40;100.00;-13853.62;1688216;85;21127;-56
2022/03/02 02:17:00;;;;;;;48.48;19.17;;;;;;;1.39;100.00;-13853.46;1687927;85;21115;-56
2022/03/02 02:19:27;;;;;;;45.80;18.48;;;;;;;1.40;100.00;-13853.62;1688089;85;21129;-56
2022/03/02 02:21:54;;;;;;;44.35;19.25;;;;;;;1.43;100.00;-13854.03;1687714;83;21584;-62
2022/03/02 02:24:24;;;;;;;49.75;21.00;;;;;;;1.42;100.00;-13853.95;1688049;85;21112;-62
2022/03/02 02:26:50;;;;;;;46.23;20.30;;;;;;;1.42;100.00;-13853.95;1688323;83;21075;-62
2022/03/02 02:29:18;;;;;;;51.63;21.02;;;;;;;1.42;100.00;-13853.95;1694732;83;21520;-63
2022/03/02 02:31:45;;;;;;;47.20;20.88;;;;;;;1.48;100.00;-13854.76;1722695;83;21136;-63
2022/03/02 02:34:12;;;;;;;43.45;18.48;;;;;;;1.45;100.00;-14017.71;1722442;82;21494;-61
2022/03/02 02:36:39;;;;;;;46.75;20.48;;;;;;;1.45;100.00;-14017.71;1723050;83;21028;-62
2022/03/02 02:39:07;;;;;;;42.85;18.05;;;;;;;1.46;100.00;-14017.96;1722782;83;21456;-64
2022/03/02 02:41:33;;;;;;;45.85;19.20;;;;;;;1.48;100.00;-14181.64;1718847;83;21686;-62
2022/03/02 02:44:01;;;;;;;40.40;18.55;;;;;;;1.46;100.00;-14181.31;1693457;83;21178;-63
2022/03/02 02:46:28;;;;;;;42.53;19.92;;;;;;;1.48;100.00;-14181.64;1693865;84;21033;-64
2022/03/02 02:48:55;;;;;;;42.15;18.65;;;;;;;1.48;100.00;-14345.16;1693728;84;21033;-64
2022/03/02 02:51:21;;;;;;;42.30;18.85;;;;;;;1.47;100.00;-14344.98;1693940;84;21506;-62
2022/03/02 02:53:48;;;;;;;40.95;19.15;;;;;;;1.49;100.00;-14508.66;1693632;84;20997;-63
2022/03/02 02:56:15;;;;;;;43.65;20.30;;;;;;;1.51;100.00;-14509.01;1693685;84;21092;-63
2022/03/02 02:58:42;;;;;;;41.92;19.25;;;;;;;1.52;100.00;-14509.27;1694117;83;20954;-62
2022/03/02 03:01:09;;;;;;;44.55;19.90;;;;;;;1.53;100.00;-14509.36;1693674;84;21052;-64
2022/03/02 03:03:36;;;;;;;44.25;18.25;;;;;;;1.54;100.00;-14509.61;1693866;84;22356;-62
2022/03/02 03:06:05;;;;;;;41.50;19.52;;;;;;;1.52;100.00;-14509.18;1693529;84;21041;-58
2022/03/02 03:08:32;;;;;;;43.42;18.35;;;;;;;1.52;100.00;-14672.61;1668298;84;21846;-58
2022/03/02 03:10:59;;;;;;;42.48;19.37;;;;;;;1.53;100.00;-14672.78;1691533;84;21032;-58
2022/03/02 03:13:27;;;;;;;36.63;17.10;;;;;;;1.53;100.00;-14672.78;1687821;84;21024;-61
2022/03/02 03:15:54;;;;;;;40.75;18.57;;;;;;;1.53;100.00;-14672.78;1687728;85;21103;-62
2022/03/02 03:18:21;;;;;;;42.00;19.77;;;;;;;1.52;100.00;-14672.61;1688129;84;21632;-61
2022/03/02 03:20:49;;;;;;;38.35;17.60;;;;;;;1.51;100.00;-14672.43;1688094;85;21126;-61
2022/03/02 03:23:16;;;;;;;45.40;19.48;;;;;;;1.49;100.00;-14672.17;1687704;85;21048;-62
2022/03/02 03:25:43;;;;;;;39.48;17.77;;;;;;;1.50;100.00;-14672.25;1691705;83;21095;-62
2022/03/02 03:28:09;;;;;;;32.33;15.78;;;;;;;1.49;100.00;-14672.17;1684384;85;21068;-62
2022/03/02 03:30:36;;;;;;;36.15;15.72;;;;;;;1.48;100.00;-14671.91;1688745;83;21076;-62
2022/03/02 03:33:04;;;;;;;38.48;17.02;;;;;;;1.49;100.00;-14508.66;1688082;83;21143;-58
2022/03/02 03:35:31;;;;;;;33.70;15.80;;;;;;;1.50;100.00;-14508.84;1686770;84;21036;-58
2022/03/02 03:37:58;;;;;;;34.85;16.32;;;;;;;1.48;100.00;-14508.58;1684918;83;21116;-57
2022/03/02 03:40:25;;;;;;;37.40;16.40;;;;;;;1.47;100.00;-14344.98;1684376;85;21397;-58
2022/03/02 03:42:53;;;;;;;30.02;13.35;;;;;;;1.46;100.00;-14344.82;1671268;83;21150;-58
2022/03/02 03:45:20;;;;;;;28.95;13.50;;;;;;;1.45;100.00;-14181.14;1690559;84;21121;-58
2022/03/02 03:47:47;;;;;;;29.35;15.10;;;;;;;1.41;100.00;-14180.64;1690675;84;20994;-58
2022/03/02 03:50:14;;;;;;;35.23;17.00;;;;;;;1.42;100.00;-14017.30;1690230;83;21089;-59
2022/03/02 03:52:41;;;;;;;34.35;15.25;;;;;;;1.41;100.00;-14017.13;1690643;83;20995;-59
2022/03/02 03:55:10;;;;;;;30.45;15.40;;;;;;;1.40;100.00;-14017.05;1690343;83;21034;-58
2022/03/02 03:57:37;;;;;;;34.67;16.23;;;;;;;1.41;100.00;-14017.13;1690695;83;21114;-58
2022/03/02 04:00:08;;;;;;;32.03;14.85;;;;;;;1.41;100.00;-14017.21;1690035;84;21042;-58
2022/03/02 04:02:34;;;;;;;29.95;14.85;;;;;;;1.41;100.00;-14017.21;1690687;83;21041;-58
2022/03/02 04:05:01;;;;;;;31.40;15.00;;;;;;;1.40;100.00;-14017.05;1689954;84;21033;-58
2022/03/02 04:07:29;;;;;;;28.20;13.28;;;;;;;1.39;100.00;-14016.89;1690709;83;21045;-58
2022/03/02 04:09:56;;;;;;;27.10;12.10;;;;;;;1.39;100.00;-13853.46;1690935;83;21443;-58
2022/03/02 04:12:24;;;;;;;29.63;14.83;;;;;;;1.39;100.00;-13853.46;1715272;83;21486;-57
2022/03/02 04:14:51;;;;;;;30.82;14.95;;;;;;;1.39;100.00;-13690.03;1719859;83;20897;-58
2022/03/02 04:17:17;;;;;;;31.45;14.53;;;;;;;1.39;100.00;-13526.59;1719391;83;21092;-58
2022/03/02 04:19:44;;;;;;;32.00;14.87;;;;;;;1.36;100.00;-13689.55;1720243;83;20974;-58
2022/03/02 04:22:11;;;;;;;33.58;15.05;;;;;;;1.36;100.00;-13689.55;1719069;83;21984;-59
2022/03/02 04:24:38;;;;;;;30.35;15.15;;;;;;;1.37;100.00;-13689.71;1719675;83;21061;-58
2022/03/02 04:27:05;;;;;;;25.97;13.70;;;;;;;1.36;100.00;-13689.55;1719414;83;21138;-58
2022/03/02 04:29:32;;;;;;;28.02;13.53;;;;;;;1.35;100.00;-13689.39;1710342;83;21655;-58
2022/03/02 04:32:01;;;;;;;31.70;13.72;;;;;;;1.31;100.00;-13525.34;1686157;84;21070;-59
2022/03/02 04:34:28;;;;;;;28.92;13.72;;;;;;;1.30;100.00;-13361.76;1685926;84;21147;-60
2022/03/02 04:36:57;;;;;;;26.73;13.68;;;;;;;1.31;100.00;-13361.91;1685799;83;21042;-64
2022/03/02 04:39:24;;;;;;;27.85;13.18;;;;;;;1.35;100.00;-13199.08;1686144;85;21061;-63
2022/03/02 04:41:51;;;;;;;25.65;12.03;;;;;;;1.36;100.00;-13035.78;1687139;83;21011;-64
2022/03/02 04:44:18;;;;;;;28.38;13.40;;;;;;;1.36;100.00;-12872.31;1690325;83;21053;-64
2022/03/02 04:46:48;;;;;;;26.85;12.53;;;;;;;1.35;100.00;-12545.15;1690476;83;21089;-63
2022/03/02 04:49:13;;;;;;;24.75;12.80;;;;;;;1.34;100.00;-12218.10;1690229;83;21141;-63
2022/03/02 04:51:40;;;;;;;29.07;13.58;;;;;;;1.35;100.00;-12054.67;1691021;83;21018;-63
2022/03/02 04:54:07;;;;;;;26.48;13.10;;;;;;;1.35;100.00;-11891.22;1690361;83;21141;-64
2022/03/02 04:56:35;;;;;;;26.15;13.35;;;;;;;1.35;100.00;-11727.70;1691097;83;21386;-64
2022/03/02 04:59:01;;;;;;;26.37;12.15;;;;;;;1.37;100.00;-11727.96;1690652;84;21223;-64
2022/03/02 05:01:28;;;;;;;28.12;14.20;;;;;;;1.39;100.00;-11728.15;1690989;83;21057;-63
2022/03/02 05:03:55;;;;;;;25.48;12.93;;;;;;;1.39;100.00;-11564.67;1690684;83;21623;-64
2022/03/02 05:06:23;;;;;;;24.43;11.68;;;;;;;1.41;100.00;-11564.92;1691304;83;21668;-63
2022/03/02 05:08:52;;;;;;;21.48;11.48;;;;;;;1.42;100.00;-11401.49;1700757;84;21030;-63
2022/03/02 05:11:21;;;;;;;19.52;10.70;;;;;;;1.42;100.00;-11237.87;1699352;83;21040;-63
2022/03/02 05:13:49;;;;;;;19.42;10.30;;;;;;;1.42;100.00;-11237.93;1686339;83;21017;-63
2022/03/02 05:16:17;;;;;;;21.30;11.10;;;;;;;1.41;100.00;-11074.24;1686663;83;21113;-64
2022/03/02 05:18:44;;;;;;;18.75;9.85;;;;;;;1.43;100.00;-11074.47;1687686;83;21080;-63
2022/03/02 05:21:12;;;;;;;17.52;10.05;;;;;;;1.43;100.00;-10910.89;1687515;83;21068;-58
2022/03/02 05:23:39;;;;;;;20.88;9.95;;;;;;;1.45;100.00;-10747.41;1687979;83;21013;-59
2022/03/02 05:26:05;;;;;;;20.85;8.73;;;;;;;1.47;100.00;-10747.63;1687255;85;20992;-59
2022/03/02 05:28:32;;;;;;;16.60;8.80;;;;;;;1.46;100.00;-10747.52;1687772;83;21057;-58
2022/03/02 05:31:00;;;;;;;16.27;7.72;;;;;;;1.45;100.00;-10583.81;1691743;83;21553;-63
2022/03/02 05:33:27;;;;;;;16.02;7.53;;;;;;;1.43;100.00;-10583.65;1695763;83;21162;-63
2022/03/02 05:35:53;;;;;;;13.65;7.65;;;;;;;1.40;100.00;-10256.12;1676775;83;21143;-64
2022/03/02 05:38:20;;;;;;;14.38;6.95;;;;;;;1.34;100.00;-9764.73;1691860;84;20984;-64
2022/03/02 05:40:47;;;;;;;14.07;7.60;;;;;;;1.33;100.00;-9601.02;1692333;84;21061;-57
2022/03/02 05:43:14;;;;;;;13.60;7.08;;;;;;;1.32;100.00;-9437.30;1684160;83;21438;-63
2022/03/02 05:45:41;;;;;;;14.33;7.10;;;;;;;1.31;100.00;-9273.54;1692002;84;21065;-63
2022/03/02 05:48:09;;;;;;;13.18;7.58;;;;;;;1.29;100.00;-9109.77;1683703;83;21832;-63
2022/03/02 05:50:35;;;;;;;11.95;5.72;;;;;;;1.27;100.00;-8945.96;1670537;85;21043;-60
2022/03/02 05:53:03;;;;;;;12.13;6.53;;;;;;;1.25;100.00;-8945.84;1670224;85;21059;-60
2022/03/02 05:55:30;;;;;;;12.15;6.62;;;;;;;1.24;100.00;-8782.09;1670435;85;20976;-60
2022/03/02 05:57:58;;;;;;;11.65;6.30;;;;;;;1.22;100.00;-8781.97;1670327;85;21645;-63
2022/03/02 06:00:25;;;;;;;12.45;6.92;;;;;;;1.21;100.00;-8781.89;1670250;85;21823;-63
2022/03/02 06:02:54;;;;;;;14.45;6.17;;;;;;;1.21;100.00;-8781.85;1670308;85;21048;-58
2022/03/02 06:05:21;;;;;;;12.85;6.55;;;;;;;1.21;100.00;-8945.48;1670132;85;21027;-58
2022/03/02 06:07:48;;;;;;;10.08;5.83;;;;;;;1.21;100.00;-8945.48;1670422;85;21060;-63
2022/03/02 06:10:16;;;;;;;12.35;5.62;;;;;;;1.19;100.00;-8945.32;1674911;84;21081;-63
2022/03/02 06:12:44;;;;;;;11.88;6.75;;;;;;;1.14;100.00;-8781.38;1675535;84;21385;-63
2022/03/02 06:15:13;;;;;;;11.48;6.03;;;;;;;1.11;100.00;-8453.91;1675074;85;21202;-63
2022/03/02 06:17:41;;;;;;;13.40;7.05;;;;;;;1.08;100.00;-8453.69;1675398;84;21063;-64
2022/03/02 06:20:10;;;;;;;11.25;6.00;;;;;;;1.08;100.00;-8453.69;1675295;85;21195;-64
2022/03/02 06:22:37;;;;;;;12.33;6.67;;;;;;;1.07;100.00;-8290.00;1676117;84;21570;-64
2022/03/02 06:25:07;;;;;;;11.57;5.65;;;;;;;1.03;100.00;-8289.72;1675189;84;22297;-64
2022/03/02 06:27:34;;;;;;;10.40;5.90;;;;;;;1.02;100.00;-8126.03;1661432;85;21083;-63
2022/03/02 06:30:01;;;;;;;10.45;6.40;;;;;;;1.03;100.00;-8289.72;1692349;83;21083;-63
2022/03/02 06:32:29;;;;;;;10.65;5.78;;;;;;;1.04;100.00;-8453.40;1711396;83;21056;-63
2022/03/02 06:34:58;;;;;;;14.43;6.58;;;;;;;1.05;100.00;-8617.04;1710847;83;21060;-63
2022/03/02 06:37:26;;;;;;;12.28;6.70;;;;;;;1.06;100.00;-8780.75;1711147;83;21193;-63
2022/03/02 06:39:54;;;;;;;10.98;5.90;;;;;;;1.08;100.00;-8780.91;1685270;83;21028;-63
2022/03/02 06:42:45;;;;;;;11.60;6.37;;;;;;;1.11;100.00;-8944.75;1670194;85;20995;-64
2022/03/02 06:45:16;;;;;;;9.73;5.65;;;;;;;1.14;100.00;-9108.55;1669066;85;21159;-59
2022/03/02 06:48:03;;;;;;;11.25;5.10;;;;;;;1.17;100.00;-9108.77;1670978;85;21111;-59
2022/03/02 06:50:32;;;;;;;10.03;5.12;;;;;;;1.19;100.00;-9108.93;1689209;84;21227;-58
2022/03/02 06:53:01;;;;;;;6.22;3.55;;;;;;;1.23;100.00;-9436.50;1690801;83;21093;-59
2022/03/02 06:55:28;;;;;;;5.60;2.50;;;;;;;1.28;100.00;-9764.21;1690535;84;21116;-58
2022/03/02 06:57:56;;;;;;;2.75;1.40;;;;;;;1.39;100.00;-10256.02;1690716;83;21103;-58
2022/03/02 07:00:23;;;;;;;2.15;1.10;;;;;;;1.49;100.00;-10747.86;1690592;83;21089;-58
2022/03/02 07:03:02;;;;;;;2.17;1.10;;;;;;;1.54;100.00;-11075.69;1690693;83;21128;-59
2022/03/02 07:05:29;;;;;;;2.75;1.10;;;;;;;1.60;100.00;-11239.95;1689801;83;21566;-59
2022/03/02 07:07:58;;;;;;;1.85;1.02;;;;;;;1.67;100.00;-11567.96;1689693;84;21057;-58
2022/03/02 07:10:25;;;;;;;1.72;0.93;;;;;;;1.75;100.00;-11732.59;1670333;83;21056;-58
2022/03/02 07:12:53;;;;;;;2.05;1.00;;;;;;;1.82;100.00;-11897.06;1686275;83;20929;-58
2022/03/02 07:15:21;;;;;;;4.20;0.90;;;;;;;1.87;100.00;-12061.35;1686448;83;21860;-58
2022/03/02 07:17:48;;;;;;;2.55;1.25;;;;;;;1.91;100.00;-12061.88;1687306;83;21065;-58
2022/03/02 07:20:15;;;;;;;1.55;1.10;;;;;;;1.94;100.00;-11898.61;1686908;83;21079;-58
2022/03/02 07:22:52;;;;;;;3.20;1.30;;;;;;;2.00;100.00;-11899.39;1687307;83;21020;-59
2022/03/02 07:25:37;;;;;;;4.05;1.60;;;;;;;2.07;100.00;-11900.17;1659550;84;22204;-59
2022/03/02 07:28:04;;;;;;;2.02;1.30;;;;;;;2.12;100.00;-12064.53;1686886;83;21143;-60
2022/03/02 07:30:31;;;;;;;2.17;1.37;;;;;;;2.18;100.00;-12065.25;1690359;84;21139;-58
2022/03/02 07:33:01;;;;;;;2.45;1.55;;;;;;;2.20;100.00;-11901.85;1695439;84;21317;-58
2022/03/02 07:35:32;;;;;;;3.58;1.80;;;;;;;2.27;100.00;-12066.45;1672079;85;21060;-58
2022/03/02 07:37:59;;;;;;;3.77;1.70;;;;;;;2.35;100.00;-12067.43;1674631;85;21040;-58
2022/03/02 07:40:26;;;;;;;2.25;1.65;;;;;;;2.41;100.00;-12395.78;1675119;85;21671;-59
2022/03/02 07:42:53;;;;;;;4.12;1.90;;;;;;;2.46;100.00;-12396.46;1675136;85;20969;-59
2022/03/02 07:45:20;;;;;;;3.45;1.70;;;;;;;2.52;100.00;-12561.08;1674938;85;21075;-59
2022/03/02 07:47:47;;;;;;;3.35;1.65;;;;;;;2.57;100.00;-12397.91;1675078;85;21080;-59
2022/03/02 07:50:16;;;;;;;3.15;1.70;;;;;;;2.60;100.00;-12398.32;1674649;85;21087;-59
2022/03/02 07:52:49;;;;;;;4.60;1.80;;;;;;;2.65;100.00;-12399.01;1689680;84;21202;-57
2022/03/02 07:55:17;;;;;;;2.22;1.40;;;;;;;2.71;100.00;-12235.91;1689659;84;21060;-59
2022/03/02 07:57:44;;;;;;;3.12;1.52;;;;;;;2.70;100.00;-11908.06;1689794;84;21068;-58
2022/03/02 08:00:12;;;;;;;2.30;1.45;;;;;;;2.72;100.00;-11744.44;1689247;84;21244;-58
2022/03/02 08:02:40;;;;;;;4.35;1.98;;;;;;;2.76;100.00;-11581.05;1690090;84;21033;-58
2022/03/02 08:05:08;;;;;;;4.10;1.80;;;;;;;2.77;100.00;-11253.36;1689572;84;21098;-58
2022/03/02 08:07:36;;;;;;;2.00;1.62;;;;;;;2.79;100.00;-10761.73;1689771;84;21048;-59
2022/03/02 08:10:04;;;;;;;3.02;1.80;;;;;;;2.80;100.00;-10270.00;1690380;84;21069;-59
2022/03/02 08:12:31;;;;;;;2.98;1.55;;;;;;;2.84;100.00;-9942.42;1716412;83;21060;-59
2022/03/02 08:14:58;;;;;;;2.40;1.60;;;;;;;2.89;100.00;-9778.79;1718786;83;21075;-59
2022/03/02 08:17:24;;;;;;;2.45;1.60;;;;;;;2.96;100.00;-9779.49;1719174;83;21488;-59
2022/03/02 08:19:52;;;;;;;6.10;1.70;;;;;;;3.04;100.00;-9780.19;1719021;83;21335;-58
2022/03/02 08:22:20;;;;;;;3.67;1.95;;;;;;;3.12;100.00;-9945.02;1718855;83;21064;-59
2022/03/02 08:24:58;;;;;;;2.75;1.82;;;;;;;3.18;100.00;-9945.51;1719196;83;21068;-59
2022/03/02 08:27:25;;;;;;;2.95;2.25;;;;;;;3.18;100.00;-9453.20;1724718;83;21099;-58
2022/03/02 08:29:56;;;;;;;2.20;1.77;;;;;;;3.17;100.00;-8796.59;1707252;83;21853;-59
2022/03/02 08:32:24;;;;;;;2.60;1.80;;;;;;;3.18;100.00;-8468.39;1690789;84;21053;-58
2022/03/02 08:34:52;;;;;;;4.17;1.92;;;;;;;3.17;100.00;-7647.37;1690870;84;21076;-59
2022/03/02 08:37:19;;;;;;;3.72;2.37;;;;;;;3.14;100.00;-6497.66;1696669;82;21129;-59
2022/03/02 08:39:47;;;;;;;5.28;2.35;;;;;;;3.13;100.00;-5676.25;1694368;84;21052;-63
2022/03/02 08:42:14;;;;;;;4.37;2.30;;;;;;;3.11;100.00;-5347.61;1693349;83;21321;-63
2022/03/02 08:44:43;;;;;;;4.70;2.30;;;;;;;3.09;100.00;-4690.30;1684849;85;21465;-62
2022/03/02 08:47:09;;;;;;;5.92;2.85;;;;;;;3.11;100.00;-4525.98;1714112;82;21088;-63
2022/03/02 08:49:38;;;;;;;8.20;2.75;;;;;;;3.12;100.00;-4197.27;1685654;84;21123;-63
2022/03/02 08:52:06;;;;;;;6.22;2.40;;;;;;;3.13;100.00;-4032.89;1688314;83;21040;-58
2022/03/02 08:54:47;;;;;;;7.10;3.25;;;;;;;3.17;100.00;-4032.89;1693757;83;21130;-58
2022/03/02 08:57:18;;;;;;;7.53;3.25;;;;;;;3.37;100.00;-5512.49;1685677;85;21092;-58
2022/03/02 08:59:44;;;;;;;8.53;3.30;;;;;;;3.37;100.00;-5512.49;1694258;84;21041;-59
2022/03/02 09:02:11;;;;;;;6.08;3.20;;;;;;;3.51;100.00;-6334.69;1685637;83;21096;-59
2022/03/02 09:04:38;;;;;;;8.33;3.87;;;;;;;3.54;100.00;-6006.07;1693822;83;21546;-60
2022/03/02 09:07:05;;;;;;;6.53;3.70;;;;;;;3.56;100.00;-4855.18;1686111;83;21148;-60
2022/03/02 09:09:32;;;;;;;7.72;3.67;;;;;;;3.62;100.00;-4197.34;1683251;85;20955;-57
2022/03/02 09:12:00;;;;;;;6.85;3.98;;;;;;;3.71;100.00;-3868.29;1679555;83;21105;-58
2022/03/02 09:14:27;;;;;;;5.90;3.87;;;;;;;3.78;100.00;-3539.14;1667966;84;21099;-58
2022/03/02 09:16:54;;;;;;;8.85;4.08;;;;;;;3.78;100.00;-3539.14;1693851;83;20957;-59
2022/03/02 09:19:21;;;;;;;7.65;3.80;;;;;;;3.85;100.00;-3374.48;1673804;84;21928;-59
2022/03/02 09:21:49;;;;;;;8.38;3.98;;;;;;;3.85;100.00;-2551.37;1664448;84;21036;-58
2022/03/02 09:24:16;;;;;;;7.83;3.83;;;;;;;3.89;100.00;-1563.23;1648256;85;21659;-58
2022/03/02 09:26:43;;;;;;;5.95;3.58;;;;;;;3.90;100.00;-574.85;1673866;84;21036;-58
2022/03/02 09:29:10;;;;;;;8.98;4.25;;;;;;;3.91;100.00;249.08;1652227;84;21250;-59
2022/03/02 09:31:37;;;;;;;11.15;4.22;;;;;;;3.90;100.00;1732.53;1702197;84;21560;-59
2022/03/02 09:34:10;;;;;;;7.30;4.12;;;;;;;3.91;100.00;2062.38;1722465;81;21666;-59
2022/03/02 09:36:37;;;;;;;8.43;4.22;;;;;;;3.92;100.00;2557.19;1696147;83;21088;-59
2022/03/02 09:39:08;;;;;;;9.70;4.67;;;;;;;3.90;100.00;3381.56;1719374;81;21080;-58
2022/03/02 09:41:51;;;;;;;8.50;4.42;;;;;;;3.90;100.00;4371.48;1716207;81;21141;-59
2022/03/02 09:44:21;;;;;;;8.33;4.12;;;;;;;3.90;100.00;5031.55;1691168;84;21120;-58
2022/03/02 09:46:51;;;;;;;10.90;4.65;;;;;;;3.94;100.00;4867.12;1661296;84;21005;-59
2022/03/02 09:49:21;;;;;;;9.35;4.90;;;;;;;4.00;100.00;4207.86;1690705;83;21091;-58
2022/03/02 09:51:53;;;;;;;9.15;4.80;;;;;;;4.05;100.00;4043.39;1690507;83;21052;-58
2022/03/02 09:54:22;;;;;;;8.53;4.10;;;;;;;4.08;100.00;4373.87;1685609;84;21265;-57
2022/03/02 09:56:51;;;;;;;10.88;4.40;;;;;;;4.12;100.00;4374.50;1690685;83;21510;-59
2022/03/02 09:59:18;;;;;;;8.80;4.12;;;;;;;4.10;100.00;5694.84;1690101;84;21403;-59
2022/03/02 10:01:46;;;;;;;9.63;3.60;;;;;;;4.16;100.00;6356.43;1690633;84;21047;-57
2022/03/02 10:04:21;;;;;;;8.18;3.22;;;;;;;4.19;100.00;6852.52;1660765;84;21123;-58
2022/03/02 10:07:26;;;;;;;4.97;2.85;;;;;;;4.26;100.00;6853.70;1690855;84;21525;-59
2022/03/02 10:09:30;;;;;;;9.78;3.30;;;;;;;4.36;100.00;6690.19;1660986;84;21666;-59
2022/03/02 10:11:56;;;;;;;6.72;3.05;;;;;;;4.47;100.00;6526.89;1690439;83;20993;-58
2022/03/02 10:14:23;;;;;;;6.47;3.27;;;;;;;4.52;100.00;8511.65;1690426;83;21088;-57
2022/03/02 10:16:52;;;;;;;8.58;3.30;;;;;;;4.53;100.00;12483.11;1690321;84;21047;-58
2022/03/02 10:19:23;;;;;;;7.72;3.77;;;;;;;4.56;100.00;13146.48;1690228;84;21043;-64
2022/03/02 10:22:01;;;;;;;8.90;3.60;;;;;;;4.65;100.00;11161.84;1690720;84;21440;-63
2022/03/02 10:24:30;;;;;;;9.70;3.10;;;;;;;4.72;100.00;10997.93;1690186;84;21111;-63
2022/03/02 10:26:57;;;;;;;8.60;3.85;;;;;;;4.72;100.00;14476.29;1690775;84;21005;-63
2022/03/02 10:29:33;;;;;;;9.35;3.70;;;;;;;4.73;100.00;15305.34;1683959;84;21064;-63
2022/03/02 10:32:08;;;;;;;8.58;3.17;;;;;;;4.74;100.00;15637.21;1662458;85;21063;-62
2022/03/02 10:34:50;;;;;;;6.75;3.02;;;;;;;4.75;100.00;17959.41;1662004;85;21820;-63
2022/03/02 10:37:33;;;;;;;7.03;2.92;;;;;;;4.75;100.00;18457.17;1662562;84;21134;-58
2022/03/02 10:40:16;;;;;;;11.12;3.08;;;;;;;4.76;100.00;19453.30;1664728;86;21095;-63
2022/03/02 10:42:57;;;;;;;9.80;3.40;;;;;;;4.78;100.00;20450.17;1669568;84;21076;-63
2022/03/02 10:45:26;;;;;;;7.30;3.00;;;;;;;4.76;100.00;22940.79;1693192;84;21257;-63
2022/03/02 10:48:13;;;;;;;8.33;3.05;;;;;;;4.76;100.00;24104.09;1692914;84;21363;-63
2022/03/02 10:50:42;;;;;;;6.62;2.95;;;;;;;4.76;100.00;23439.30;1692951;84;21043;-64
2022/03/02 10:53:16;;;;;;;9.38;2.80;;;;;;;4.75;100.00;22441.68;1693105;84;21470;-58
2022/03/02 10:55:45;;;;;;;5.00;2.02;;;;;;;4.78;100.00;20948.32;1667787;84;21075;-59
2022/03/02 10:58:18;;;;;;;4.45;1.80;;;;;;;4.82;100.00;20783.91;1692824;84;21485;-58
2022/03/02 11:00:46;;;;;;;4.78;2.15;;;;;;;4.85;100.00;20785.15;1693270;84;21810;-58
2022/03/02 11:03:13;;;;;;;6.28;2.55;;;;;;;4.88;100.00;22447.64;1692817;84;20995;-58
2022/03/02 11:05:41;;;;;;;10.43;2.75;;;;;;;4.92;100.00;22448.96;1693037;84;21080;-59
2022/03/02 11:08:07;;;;;;;5.85;2.50;;;;;;;4.97;100.00;23614.69;1691824;84;21023;-58
2022/03/02 11:10:37;;;;;;;5.62;2.67;;;;;;;5.02;100.00;22952.02;1692378;84;22264;-63
2022/03/02 11:13:11;;;;;;;8.10;2.60;;;;;;;5.06;100.00;23286.31;1691741;84;21080;-65
2022/03/02 11:15:50;;;;;;;5.17;2.50;;;;;;;5.07;100.00;24616.85;1692119;83;20980;-63
2022/03/02 11:18:34;;;;;;;8.98;2.72;;;;;;;5.02;100.00;30440.94;1692211;83;21496;-62
2022/03/02 11:21:05;;;;;;;6.15;2.50;;;;;;;4.91;100.00;46463.38;1692609;83;21119;-64
2022/03/02 11:23:43;;;;;;;10.82;2.50;;;;;;;4.83;100.00;49638.61;1693119;84;21048;-62
2022/03/02 11:26:12;;;;;;;6.30;2.65;;;;;;;4.82;100.00;50978.00;1692696;84;21133;-63